Cincinnati, Ohio
Current Conditions -  °F | °C
As of 11:53 AM on Friday 19 Dec 2014 (Local Time) from KLUK Reporting Station
Overcast Overcast  
Wind Chill: 30°   Ceiling: 2400
Heat Index: 30°   Visibility: 9mi
Dew Point: 21°   Wind: 3mph
Humidity: 69%   Direction: 70°ENE
Pressure: 30.31"   Gusts: NA
Location:  39.11°N, 84.5°W
Report Text: KLUK 191653Z 07003KT 9SM OVC024 M01/M06 A3031 RMK AO2 SLP268 T10111061
Loading
Personal Weather Stations






























Interactive Weather Map New forecast layout! Learn more

10-Day Weather Forecast

Advertisements
Track Severe Weather on mobile